aviador You're here:

PAMH Decoded Metar

MINCHUMINA in AK, USA
Report Time2017-05-24 16:56:00
UTC Time2017-05-24 17:53:24
Flight Rules vfr VFR
WindVRB at 03 kt
Visibility9999 m
Phenomena:N/A
Clouds:Overcast 065 Hf
Expected CloudBase > 3,200 ft AGL from Temp-Dew spread
Ceiling6,500 ft
Temp08°C (ISA -6)
Dew Point00°C (57% RH)
AAT4.9°C
QNH1007 hPa
Density Alt322 ft
Elevation702 ft
Report Wrong Elevation
Raw Report
PAMH 241656Z AUTO VRB03KT 10SM OVC065 08/00 A2975 RMK AO2 SLP098
T00830000=

Extra information for PAMH:More info

Metar Taf Metar & Taf Last 4 Metars F.Rules Stats Wind Profile Meteogram Temp Stats Airport Information Weather charts Add Link Nearby VenuesMetar ALERT Operation Metar Decoded Social comments

AIRNAV info for PAMH